Time;durP1;ratioP1;P1;durP2;ratioP2;P2;SDS_P1;SDS_P2;PMS_P1;PMS_P2;Temp;Humidity;BMP_temperature;BMP_pressure;BME280_temperature;BME280_humidity;BME280_pressure;Samples;Min_cycle;Max_cycle;Signal;HPM_P1;HPM_P2
2021/11/15 00:02:56;;;;;;;18.25;4.55;;;;;;;8.82;100.00;101008.00;5030523;28;20059;-77
2021/11/15 00:05:59;;;;;;;23.58;5.18;;;;;;;8.79;100.00;100997.75;5030589;28;20103;-75
2021/11/15 00:09:02;;;;;;;40.50;5.70;;;;;;;8.56;100.00;100997.97;5031069;28;20102;-79
2021/11/15 00:12:06;;;;;;;11.90;5.05;;;;;;;8.81;100.00;101006.47;5033454;28;20079;-76
2021/11/15 00:15:09;;;;;;;13.07;2.90;;;;;;;8.74;100.00;101003.88;5030564;28;20103;-76
2021/11/15 00:18:12;;;;;;;13.82;2.60;;;;;;;8.50;100.00;100998.91;5031966;28;20048;-76
2021/11/15 00:21:16;;;;;;;19.92;3.92;;;;;;;8.82;100.00;101004.44;5030450;28;20106;-75
2021/11/15 00:24:19;;;;;;;8.45;4.13;;;;;;;8.95;100.00;100999.75;5013447;28;20506;-77
2021/11/15 00:27:22;;;;;;;9.05;2.80;;;;;;;8.98;100.00;100999.66;5028144;28;20127;-76
2021/11/15 00:30:25;;;;;;;12.75;4.35;;;;;;;9.10;100.00;100995.38;5030971;28;20583;-76
2021/11/15 00:33:28;;;;;;;5.90;2.75;;;;;;;9.14;100.00;100987.72;5030769;28;20557;-74
2021/11/15 00:36:31;;;;;;;15.27;2.53;;;;;;;9.13;100.00;100977.84;5030110;28;20449;-78
2021/11/15 00:39:34;;;;;;;7.78;2.60;;;;;;;8.79;100.00;100975.53;5030396;28;20048;-76
2021/11/15 00:42:37;;;;;;;19.45;2.70;;;;;;;9.14;100.00;100979.38;5030745;28;20048;-76
2021/11/15 00:45:41;;;;;;;6.47;2.53;;;;;;;9.31;100.00;100978.16;5030713;28;20044;-76
2021/11/15 00:48:43;;;;;;;6.75;2.40;;;;;;;9.55;100.00;100976.63;5032252;28;20052;-76
2021/11/15 00:51:46;;;;;;;9.25;2.40;;;;;;;9.77;100.00;100972.00;5034306;28;20076;-76
2021/11/15 00:54:49;;;;;;;6.25;2.63;;;;;;;9.62;100.00;100975.66;5034206;28;20092;-76
2021/11/15 00:57:53;;;;;;;6.13;3.72;;;;;;;9.70;100.00;100972.22;5033163;28;20084;-76
2021/11/15 01:00:57;;;;;;;6.35;2.70;;;;;;;9.78;100.00;100961.66;5026903;28;20057;-76
2021/11/15 01:04:00;;;;;;;14.13;4.47;;;;;;;9.81;100.00;100983.81;5034503;28;20521;-75
2021/11/15 01:07:03;;;;;;;5.43;2.28;;;;;;;9.99;100.00;100982.50;5034657;28;20052;-76
2021/11/15 01:10:09;;;;;;;8.30;3.65;;;;;;;10.07;100.00;100976.25;5033911;28;20076;-76
2021/11/15 01:13:12;;;;;;;7.93;2.85;;;;;;;10.38;100.00;100968.94;5034240;28;20129;-76
2021/11/15 01:16:15;;;;;;;5.13;3.42;;;;;;;10.35;100.00;100967.03;5033728;28;20099;-76
2021/11/15 01:19:19;;;;;;;7.68;2.55;;;;;;;10.63;100.00;100965.34;5034476;28;20145;-76
2021/11/15 01:22:22;;;;;;;6.95;2.47;;;;;;;10.61;100.00;100968.56;5034172;28;20099;-77
2021/11/15 01:25:26;;;;;;;4.63;2.78;;;;;;;9.50;100.00;100971.63;5033916;28;20516;-76
2021/11/15 01:28:29;;;;;;;12.30;3.20;;;;;;;8.93;100.00;100980.75;5033347;28;20075;-76
2021/11/15 01:31:32;;;;;;;13.73;3.58;;;;;;;8.73;100.00;100974.53;5033899;28;20048;-76
2021/11/15 01:34:36;;;;;;;5.55;2.58;;;;;;;8.62;100.00;100976.78;5033581;28;20103;-76
2021/11/15 01:37:39;;;;;;;9.05;3.50;;;;;;;8.55;100.00;100982.53;5033446;28;20092;-76
2021/11/15 01:40:42;;;;;;;10.13;2.45;;;;;;;8.66;100.00;100982.25;5031524;28;20052;-78
2021/11/15 01:43:46;;;;;;;9.90;2.45;;;;;;;8.48;100.00;100984.69;5033214;28;20109;-76
2021/11/15 01:46:49;;;;;;;5.03;2.35;;;;;;;9.03;100.00;100979.69;5033335;28;20096;-76
2021/11/15 01:49:52;;;;;;;13.80;3.13;;;;;;;9.02;100.00;100972.56;5033160;28;20114;-76
2021/11/15 01:52:56;;;;;;;11.20;2.47;;;;;;;8.93;100.00;100963.28;5032925;28;20048;-76
2021/11/15 01:55:59;;;;;;;17.33;3.15;;;;;;;9.29;100.00;100963.13;5033225;28;20407;-76
2021/11/15 01:59:04;;;;;;;8.82;2.97;;;;;;;9.25;100.00;100954.09;5032233;28;20072;-76
2021/11/15 02:02:07;;;;;;;7.53;2.70;;;;;;;9.38;100.00;100960.44;5033291;28;20076;-76
2021/11/15 02:05:10;;;;;;;6.22;2.72;;;;;;;9.26;100.00;100953.66;5032413;28;20510;-77
2021/11/15 02:08:13;;;;;;;6.93;2.47;;;;;;;9.29;100.00;100958.31;5013534;28;20049;-76
2021/11/15 02:11:17;;;;;;;19.83;3.28;;;;;;;8.25;100.00;100968.97;5022068;28;20056;-76
2021/11/15 02:14:20;;;;;;;6.03;2.05;;;;;;;8.10;100.00;100962.19;5033172;28;20510;-76
2021/11/15 02:17:23;;;;;;;4.90;2.63;;;;;;;8.07;100.00;100963.03;5032467;28;20044;-76
2021/11/15 02:20:40;;;;;;;14.07;4.00;;;;;;;8.53;100.00;100967.53;5032472;28;20087;-76
2021/11/15 02:23:44;;;;;;;8.55;3.42;;;;;;;8.70;100.00;100963.50;5032722;28;20044;-76
2021/11/15 02:26:47;;;;;;;13.27;3.80;;;;;;;8.86;100.00;100955.13;5032402;28;20071;-76
2021/11/15 02:29:49;;;;;;;10.52;2.58;;;;;;;8.93;100.00;100952.19;5032441;28;20048;-76
2021/11/15 02:32:54;;;;;;;9.10;3.90;;;;;;;9.14;100.00;100957.16;5037709;28;20064;-76
2021/11/15 02:35:58;;;;;;;4.25;2.67;;;;;;;9.29;100.00;100963.13;4999987;28;21071;-76
2021/11/15 02:39:02;;;;;;;10.80;2.40;;;;;;;9.49;100.00;100960.94;4995681;28;20168;-76
2021/11/15 02:42:05;;;;;;;15.65;3.63;;;;;;;9.71;100.00;100945.97;4977168;28;20048;-77
2021/11/15 02:45:10;;;;;;;8.40;3.47;;;;;;;9.98;100.00;100947.56;4980314;28;20147;-76
2021/11/15 02:48:13;;;;;;;13.77;3.80;;;;;;;10.05;100.00;100948.09;4991077;28;20733;-76
2021/11/15 02:51:16;;;;;;;13.73;4.05;;;;;;;10.08;100.00;100938.88;4989954;28;20299;-76
2021/11/15 02:54:22;;;;;;;5.10;2.65;;;;;;;10.15;100.00;100944.25;4991947;28;20036;-78
2021/11/15 02:57:26;;;;;;;4.07;2.90;;;;;;;10.02;100.00;100943.44;4991344;28;20036;-77
2021/11/15 03:00:41;;;;;;;4.88;2.63;;;;;;;10.11;100.00;100928.88;4993560;28;20570;-76
2021/11/15 03:03:44;;;;;;;6.88;2.95;;;;;;;10.19;100.00;100928.22;4990823;28;20048;-77
2021/11/15 03:06:47;;;;;;;4.40;1.92;;;;;;;10.54;100.00;100923.47;4990581;28;20045;-78
2021/11/15 03:09:50;;;;;;;4.07;2.30;;;;;;;10.56;100.00;100927.38;4991216;28;20121;-76
2021/11/15 03:12:54;;;;;;;8.30;4.25;;;;;;;10.72;100.00;100917.31;4970486;28;20084;-77
2021/11/15 03:15:58;;;;;;;2.83;1.92;;;;;;;10.44;100.00;100925.38;4975918;28;20044;-77
2021/11/15 03:19:01;;;;;;;8.10;2.35;;;;;;;10.40;100.00;100930.28;5004666;28;20052;-76
2021/11/15 03:22:04;;;;;;;10.50;4.03;;;;;;;10.42;100.00;100938.97;5031697;28;20049;-76
2021/11/15 03:25:07;;;;;;;5.28;2.53;;;;;;;10.79;100.00;100934.53;5024420;28;20047;-77
2021/11/15 03:28:12;;;;;;;9.05;2.45;;;;;;;11.04;100.00;100922.53;5011643;28;20415;-75
2021/11/15 03:31:22;;;;;;;12.68;4.40;;;;;;;11.21;100.00;100915.53;5012013;28;20048;-76
2021/11/15 03:34:25;;;;;;;5.63;1.90;;;;;;;11.46;100.00;100920.94;5011900;28;20100;-76
2021/11/15 03:37:29;;;;;;;13.65;3.08;;;;;;;11.50;100.00;100912.47;5011518;28;20093;-76
2021/11/15 03:40:33;;;;;;;8.45;3.05;;;;;;;11.51;100.00;100908.44;5011723;28;20052;-76
2021/11/15 03:43:37;;;;;;;8.88;2.78;;;;;;;11.85;100.00;100900.72;5011149;28;20100;-76
2021/11/15 03:46:41;;;;;;;6.43;3.42;;;;;;;11.89;100.00;100898.56;5011458;28;20068;-76
2021/11/15 03:49:44;;;;;;;6.53;2.53;;;;;;;11.88;100.00;100896.25;5011179;28;20052;-76
2021/11/15 03:52:48;;;;;;;17.90;3.75;;;;;;;12.08;100.00;100899.44;5011083;28;20567;-77
2021/11/15 03:55:51;;;;;;;10.57;2.25;;;;;;;12.15;100.00;100894.31;5011266;28;20099;-76
2021/11/15 03:58:56;;;;;;;8.07;1.83;;;;;;;11.94;100.00;100900.75;5019646;28;20099;-76
2021/11/15 04:01:59;;;;;;;11.57;2.78;;;;;;;12.12;100.00;100895.25;5031308;28;20051;-77
2021/11/15 04:05:04;;;;;;;12.77;2.88;;;;;;;11.87;100.00;100901.03;5031448;28;20141;-75
2021/11/15 04:08:08;;;;;;;13.25;4.22;;;;;;;11.96;100.00;100891.91;5031284;28;20111;-76
2021/11/15 04:11:11;;;;;;;12.40;3.00;;;;;;;12.17;100.00;100888.28;5030996;28;20068;-76
2021/11/15 04:14:15;;;;;;;4.88;2.63;;;;;;;12.22;100.00;100893.25;5024466;28;20045;-76
2021/11/15 04:17:20;;;;;;;17.70;2.35;;;;;;;12.28;100.00;100896.97;5031076;28;20103;-76
2021/11/15 04:20:23;;;;;;;12.43;2.55;;;;;;;12.26;100.00;100887.53;5031552;28;20411;-76
2021/11/15 04:23:26;;;;;;;14.65;3.22;;;;;;;12.32;100.00;100896.84;5032930;28;20411;-76
2021/11/15 04:26:30;;;;;;;12.95;4.13;;;;;;;12.31;100.00;100886.91;5035648;28;20096;-76
2021/11/15 04:29:34;;;;;;;14.32;3.70;;;;;;;12.46;100.00;100883.06;5034504;28;20525;-76
2021/11/15 04:32:38;;;;;;;4.07;1.73;;;;;;;12.50;100.00;100885.69;5034204;28;20391;-76
2021/11/15 04:35:41;;;;;;;5.13;2.83;;;;;;;12.26;100.00;100890.31;5035481;28;20048;-77
2021/11/15 04:38:43;;;;;;;15.18;3.08;;;;;;;12.36;100.00;100895.47;5033822;28;20136;-76
2021/11/15 04:41:47;;;;;;;4.57;2.17;;;;;;;12.45;100.00;100901.03;5032904;28;20096;-76
2021/11/15 04:44:49;;;;;;;7.50;2.63;;;;;;;12.47;100.00;100892.22;5033881;28;20072;-76
2021/11/15 04:47:53;;;;;;;20.42;3.10;;;;;;;12.50;100.00;100885.69;5034066;28;20148;-76
2021/11/15 04:50:56;;;;;;;9.25;2.10;;;;;;;12.56;100.00;100889.44;5034101;28;20415;-76
2021/11/15 04:53:59;;;;;;;7.38;1.83;;;;;;;12.52;100.00;100883.22;5033625;28;20045;-76
2021/11/15 04:57:02;;;;;;;7.68;3.08;;;;;;;12.54;100.00;100883.53;5034635;28;20450;-75
2021/11/15 05:00:08;;;;;;;4.72;2.40;;;;;;;11.43;100.00;100889.16;5034364;28;20830;-75
2021/11/15 05:03:13;;;;;;;8.23;2.08;;;;;;;10.74;100.00;100906.47;5033467;28;20685;-75
2021/11/15 05:06:16;;;;;;;5.95;3.00;;;;;;;10.69;100.00;100902.25;5034438;28;20506;-75
2021/11/15 05:09:19;;;;;;;6.32;1.45;;;;;;;10.72;100.00;100903.38;5033825;28;20147;-75
2021/11/15 05:12:23;;;;;;;18.98;3.38;;;;;;;10.68;100.00;100897.91;5034072;28;20103;-75
2021/11/15 05:15:26;;;;;;;13.30;2.35;;;;;;;10.72;100.00;100906.16;5033911;28;20107;-75
2021/11/15 05:18:28;;;;;;;8.95;1.48;;;;;;;10.72;100.00;100901.34;5033939;28;20095;-77
2021/11/15 05:21:31;;;;;;;3.58;3.03;;;;;;;11.29;100.00;100900.09;5033556;28;20057;-75
2021/11/15 05:24:34;;;;;;;8.48;1.48;;;;;;;10.76;100.00;100901.22;5033242;28;20514;-75
2021/11/15 05:27:38;;;;;;;13.45;2.80;;;;;;;10.79;100.00;100903.09;5031505;28;20442;-74
2021/11/15 05:30:40;;;;;;;8.18;1.88;;;;;;;10.86;100.00;100905.66;5033564;28;20099;-75
2021/11/15 05:33:43;;;;;;;14.23;4.05;;;;;;;10.89;100.00;100896.38;5032230;28;20053;-75
2021/11/15 05:36:46;;;;;;;6.85;1.38;;;;;;;10.85;100.00;100892.97;5032500;28;20091;-75
2021/11/15 05:39:49;;;;;;;7.55;3.05;;;;;;;10.95;100.00;100892.56;5033187;28;20044;-75
2021/11/15 05:42:54;;;;;;;10.95;2.40;;;;;;;11.69;100.00;100884.22;5033696;28;20060;-75
2021/11/15 05:45:57;;;;;;;11.75;2.03;;;;;;;11.88;100.00;100885.06;5033333;28;20095;-75
2021/11/15 05:49:00;;;;;;;9.75;2.10;;;;;;;12.00;100.00;100879.38;5033306;28;20100;-75
2021/11/15 05:52:03;;;;;;;7.35;2.55;;;;;;;12.00;100.00;100879.38;5033707;28;20576;-75
2021/11/15 05:55:09;;;;;;;18.42;3.35;;;;;;;11.83;100.00;100882.88;5033115;28;20514;-75
2021/11/15 05:58:12;;;;;;;11.35;2.38;;;;;;;11.76;100.00;100886.72;5029997;28;20060;-75
2021/11/15 06:01:16;;;;;;;12.43;3.72;;;;;;;11.80;100.00;100895.72;5033305;28;20544;-75
2021/11/15 06:04:19;;;;;;;7.97;2.03;;;;;;;11.76;100.00;100900.69;5033509;28;20075;-76
2021/11/15 06:07:22;;;;;;;4.53;2.28;;;;;;;11.78;100.00;100900.25;5033545;28;20195;-75
2021/11/15 06:10:24;;;;;;;6.32;1.38;;;;;;;11.83;100.00;100894.03;5032979;28;20522;-75
2021/11/15 06:13:27;;;;;;;16.83;3.25;;;;;;;11.78;100.00;100897.44;5031713;28;20560;-75
2021/11/15 06:16:31;;;;;;;2.88;1.33;;;;;;;11.82;100.00;100893.28;5032636;28;20104;-76
2021/11/15 06:19:33;;;;;;;15.13;2.10;;;;;;;12.10;100.00;100885.78;5032810;28;20104;-77
2021/11/15 06:22:37;;;;;;;6.40;2.30;;;;;;;12.17;100.00;100891.09;5031916;28;20061;-76
2021/11/15 06:25:40;;;;;;;3.67;0.90;;;;;;;12.26;100.00;100887.53;5024623;28;20048;-76
2021/11/15 06:28:46;;;;;;;12.85;2.13;;;;;;;12.23;100.00;100888.44;5032571;28;20088;-76
2021/11/15 06:31:49;;;;;;;6.00;1.35;;;;;;;12.07;100.00;100887.47;5032032;28;20403;-75
2021/11/15 06:34:52;;;;;;;6.00;1.73;;;;;;;12.26;100.00;100881.94;5032334;28;20064;-75
2021/11/15 06:37:57;;;;;;;5.85;1.75;;;;;;;12.46;100.00;100885.84;5032230;28;20052;-75
2021/11/15 06:40:59;;;;;;;7.47;1.58;;;;;;;12.47;100.00;100890.22;5032512;28;20095;-75
2021/11/15 06:44:03;;;;;;;8.57;1.83;;;;;;;12.42;100.00;100890.03;5032124;28;20487;-75
2021/11/15 06:47:07;;;;;;;17.67;1.98;;;;;;;12.45;100.00;100891.91;5032561;28;20053;-75
2021/11/15 06:50:19;;;;;;;15.13;2.20;;;;;;;12.41;100.00;100894.09;5038027;28;20087;-75
2021/11/15 06:53:22;;;;;;;;;;;;;;;12.51;100.00;100895.63;5040905;28;20442;-76
2021/11/15 06:56:25;;;;;;;11.13;2.53;;;;;;;12.44;100.00;100893.13;5032038;28;19975;-75
2021/11/15 06:59:27;;;;;;;8.88;3.97;;;;;;;12.48;100.00;100900.13;5023806;28;20052;-76
2021/11/15 07:02:30;;;;;;;23.45;2.08;;;;;;;12.52;100.00;100911.94;5031357;28;20462;-75
2021/11/15 07:05:33;;;;;;;5.25;1.88;;;;;;;12.51;100.00;100909.59;5031907;28;20052;-75
2021/11/15 07:08:35;;;;;;;15.07;1.92;;;;;;;12.48;100.00;100916.13;5031621;28;20194;-73
2021/11/15 07:11:39;;;;;;;9.82;2.08;;;;;;;12.54;100.00;100931.81;5030961;28;20052;-75
2021/11/15 07:14:42;;;;;;;15.82;3.17;;;;;;;12.54;100.00;100928.25;5031790;28;20056;-75
2021/11/15 07:17:46;;;;;;;1.48;1.15;;;;;;;12.70;100.00;100934.31;5032135;28;20099;-75
2021/11/15 07:20:49;;;;;;;15.07;1.40;;;;;;;12.59;100.00;100936.78;5031194;28;20614;-75
2021/11/15 07:23:53;;;;;;;6.93;1.67;;;;;;;12.56;100.00;100945.34;5031066;28;20080;-75
2021/11/15 07:26:56;;;;;;;2.00;0.85;;;;;;;12.55;100.00;100952.94;5030832;28;20048;-75
2021/11/15 07:29:59;;;;;;;5.78;2.17;;;;;;;12.58;100.00;100956.81;5030923;28;20099;-75
2021/11/15 07:33:02;;;;;;;11.98;2.20;;;;;;;12.52;100.00;100947.47;5030508;28;20506;-75
2021/11/15 07:36:06;;;;;;;4.88;1.50;;;;;;;12.70;100.00;100950.31;5029972;28;20049;-76
2021/11/15 07:39:09;;;;;;;7.18;2.15;;;;;;;12.70;100.00;100953.91;5030976;28;20471;-75
2021/11/15 07:42:16;;;;;;;9.13;1.63;;;;;;;12.74;100.00;100950.94;5032124;28;20072;-75
2021/11/15 07:45:19;;;;;;;10.27;1.40;;;;;;;12.75;100.00;100950.50;5031641;28;20557;-75
2021/11/15 07:48:22;;;;;;;3.33;1.25;;;;;;;12.67;100.00;100948.44;5031357;28;20052;-75
2021/11/15 07:51:25;;;;;;;4.38;1.77;;;;;;;12.63;100.00;100950.59;5031553;28;20060;-75
2021/11/15 07:54:28;;;;;;;7.07;1.67;;;;;;;12.75;100.00;100949.72;5031334;28;20099;-75
2021/11/15 07:57:31;;;;;;;13.82;2.38;;;;;;;12.81;100.00;100956.22;5031018;28;20056;-75
2021/11/15 08:00:34;;;;;;;2.55;1.48;;;;;;;12.87;100.00;100948.78;5035033;28;20791;-75
2021/11/15 08:03:41;;;;;;;8.73;2.70;;;;;;;12.85;100.00;100954.84;5035078;28;20051;-75
2021/11/15 08:06:44;;;;;;;12.43;2.42;;;;;;;12.93;100.00;100952.50;5035246;28;20045;-75
2021/11/15 08:09:47;;;;;;;4.70;1.25;;;;;;;12.98;100.00;100954.69;5035206;28;20467;-75
2021/11/15 08:12:54;;;;;;;15.40;1.50;;;;;;;13.11;100.00;100952.56;5015481;28;20040;-75
2021/11/15 08:15:57;;;;;;;11.50;2.10;;;;;;;13.14;100.00;100940.44;5015034;28;20053;-77
2021/11/15 08:19:00;;;;;;;3.63;1.63;;;;;;;13.04;100.00;100952.06;5015554;28;20045;-76
2021/11/15 08:22:03;;;;;;;7.72;1.50;;;;;;;13.21;100.00;100959.69;5035216;28;20048;-76
2021/11/15 08:25:25;;;;;;;6.90;1.77;;;;;;;13.21;100.00;100965.28;5035735;28;20140;-76
2021/11/15 08:28:32;;;;;;;11.80;2.38;;;;;;;13.18;100.00;100957.84;5035259;28;20111;-79
2021/11/15 08:31:36;;;;;;;7.68;2.20;;;;;;;13.23;100.00;100964.84;5035073;28;20060;-74
2021/11/15 08:34:39;;;;;;;14.07;2.00;;;;;;;13.28;100.00;100962.19;5034200;28;20048;-75
2021/11/15 08:38:14;;;;;;;9.77;2.67;;;;;;;13.39;100.00;100964.50;5034897;28;20061;-75
2021/11/15 08:41:26;;;;;;;5.53;2.83;;;;;;;13.39;100.00;100973.66;5038333;28;20108;-72
2021/11/15 08:44:30;;;;;;;14.73;2.80;;;;;;;13.32;100.00;100973.97;5015834;28;20534;-76
2021/11/15 08:47:33;;;;;;;13.27;3.15;;;;;;;13.36;100.00;100974.59;5015120;28;20103;-75
2021/11/15 08:50:36;;;;;;;19.35;4.43;;;;;;;13.40;100.00;100966.84;5015114;28;20057;-74
2021/11/15 08:53:41;;;;;;;14.27;3.13;;;;;;;13.47;100.00;100977.69;5014803;28;20048;-72
2021/11/15 08:56:50;;;;;;;7.78;2.10;;;;;;;13.69;100.00;100969.09;5014670;28;20048;-74
2021/11/15 08:59:55;;;;;;;14.70;2.60;;;;;;;13.71;100.00;100963.06;5026780;28;20111;-74
2021/11/15 09:02:59;;;;;;;4.57;2.15;;;;;;;13.73;100.00;100963.38;5022658;28;20056;-73
2021/11/15 09:06:01;;;;;;;13.20;3.00;;;;;;;13.66;100.00;100965.22;5013440;28;20582;-73
2021/11/15 09:09:09;;;;;;;12.63;2.33;;;;;;;13.81;100.00;100958.97;5012980;28;20045;-73
2021/11/15 09:12:12;;;;;;;5.57;2.42;;;;;;;13.83;100.00;100965.66;5029463;28;20446;-73
2021/11/15 09:15:16;;;;;;;11.73;2.65;;;;;;;13.74;100.00;100959.31;5032654;28;20064;-74
2021/11/15 09:18:19;;;;;;;10.38;1.92;;;;;;;13.66;100.00;100961.66;5032832;28;20056;-73
2021/11/15 09:21:22;;;;;;;14.43;3.38;;;;;;;13.55;100.00;100978.94;5013068;28;20088;-73
2021/11/15 09:24:26;;;;;;;2.33;1.63;;;;;;;13.48;100.00;100976.47;5013202;28;20056;-74
2021/11/15 09:27:29;;;;;;;14.63;2.60;;;;;;;13.43;100.00;100977.09;5012967;28;20045;-74
2021/11/15 09:30:32;;;;;;;11.88;2.60;;;;;;;13.48;100.00;100984.88;5012944;28;20541;-74
2021/11/15 09:33:36;;;;;;;9.80;2.80;;;;;;;13.38;100.00;100977.69;5032990;28;20087;-73
2021/11/15 09:36:39;;;;;;;17.20;2.85;;;;;;;13.40;100.00;100975.25;5033400;28;20044;-74
2021/11/15 09:39:45;;;;;;;8.88;1.75;;;;;;;13.52;100.00;100977.06;5032617;28;20056;-74
2021/11/15 09:42:49;;;;;;;16.42;3.75;;;;;;;13.55;100.00;100966.97;5033266;28;20079;-76
2021/11/15 09:45:52;;;;;;;12.48;2.20;;;;;;;13.59;100.00;100971.16;5034807;28;20484;-76
2021/11/15 09:49:10;;;;;;;11.23;2.47;;;;;;;13.75;100.00;100978.44;5035671;28;20087;-75
2021/11/15 09:52:14;;;;;;;13.02;2.53;;;;;;;13.67;100.00;100969.59;5034017;28;20103;-75
2021/11/15 09:55:17;;;;;;;7.20;2.33;;;;;;;13.61;100.00;100968.66;5033595;28;20145;-75
2021/11/15 09:58:20;;;;;;;13.05;4.32;;;;;;;13.68;100.00;100971.16;5032251;28;20067;-75
2021/11/15 10:01:23;;;;;;;5.80;2.17;;;;;;;13.77;100.00;100970.34;5033121;28;20128;-74
2021/11/15 10:04:27;;;;;;;10.10;1.20;;;;;;;13.90;100.00;100972.97;5033373;28;20124;-72
2021/11/15 10:07:45;;;;;;;9.10;1.50;;;;;;;13.98;100.00;100971.38;5032639;28;20052;-77
2021/11/15 10:10:56;;;;;;;15.95;1.88;;;;;;;14.07;100.00;100971.34;5031721;28;20115;-77
2021/11/15 10:14:03;;;;;;;3.55;1.27;;;;;;;13.96;100.00;100982.28;5031866;28;20464;-77
2021/11/15 10:17:06;;;;;;;7.80;1.70;;;;;;;13.87;100.00;100976.69;5031828;28;20044;-77
2021/11/15 10:20:09;;;;;;;9.70;1.83;;;;;;;14.10;100.00;100970.38;5031779;28;20552;-76
2021/11/15 10:23:51;;;;;;;6.97;1.67;;;;;;;14.24;100.00;100970.50;5032214;28;20048;-75
2021/11/15 10:26:58;;;;;;;6.80;1.52;;;;;;;14.44;100.00;100972.78;4992667;28;20105;-76
2021/11/15 10:30:09;;;;;;;5.75;2.35;;;;;;;14.61;100.00;100964.72;5032355;28;20060;-76
2021/11/15 10:33:16;;;;;;;9.18;2.75;;;;;;;14.82;100.00;100961.63;5032099;28;20052;-77
2021/11/15 10:36:41;;;;;;;9.90;2.65;;;;;;;14.96;100.00;100974.94;5032046;28;20048;-76
2021/11/15 10:40:10;;;;;;;7.38;1.95;;;;;;;15.04;100.00;100973.31;5031816;28;20044;-77
2021/11/15 10:43:13;;;;;;;9.40;2.97;;;;;;;14.99;100.00;100973.97;5031724;28;20514;-77
2021/11/15 10:46:33;;;;;;;10.05;1.85;;;;;;;14.94;100.00;100976.66;5032220;28;20107;-77
2021/11/15 10:49:36;;;;;;;7.55;2.03;;;;;;;14.95;100.00;100973.38;5031093;28;20513;-76
2021/11/15 10:52:41;;;;;;;12.50;3.35;;;;;;;14.98;100.00;100978.03;5031153;28;20051;-76
2021/11/15 10:56:02;;;;;;;11.50;1.38;;;;;;;14.99;100.00;100979.56;5031455;28;20053;-80
2021/11/15 10:59:13;;;;;;;3.60;1.40;;;;;;;14.99;100.00;100973.97;5031183;28;20052;-80
2021/11/15 11:02:28;;;;;;;9.25;1.88;;;;;;;15.02;100.00;100972.25;5031302;28;20068;-80
2021/11/15 11:05:31;;;;;;;12.45;3.28;;;;;;;15.04;100.00;100973.31;5031440;28;20051;-80
2021/11/15 11:08:44;;;;;;;6.22;1.60;;;;;;;15.07;100.00;100972.34;5031250;28;20591;-77
2021/11/15 11:11:47;;;;;;;6.85;2.72;;;;;;;15.01;100.00;100965.84;5031236;28;21455;-76
2021/11/15 11:14:52;;;;;;;6.10;1.83;;;;;;;14.86;100.00;100962.22;5030666;28;20491;-76
2021/11/15 11:17:59;;;;;;;22.90;4.28;;;;;;;14.83;100.00;100954.78;5011924;28;20040;-78
2021/11/15 11:24:41;;;;;;;10.95;2.58;;;;;;;15.13;100.00;100953.59;5013333;28;20112;-79
2021/11/15 11:27:44;;;;;;;10.77;2.70;;;;;;;15.00;100.00;100941.09;5010685;28;20108;-80
2021/11/15 11:30:47;;;;;;;7.35;1.92;;;;;;;14.60;100.00;100940.72;5030488;28;20064;-79
2021/11/15 11:33:50;;;;;;;10.85;3.05;;;;;;;14.50;100.00;100942.84;5010349;28;20153;-79
2021/11/15 11:36:54;;;;;;;11.88;3.00;;;;;;;14.60;100.00;100935.13;5011238;28;20518;-78
2021/11/15 11:40:00;;;;;;;14.73;2.50;;;;;;;14.56;100.00;100932.50;5010572;28;20100;-79
2021/11/15 11:43:03;;;;;;;5.70;1.80;;;;;;;14.06;100.00;100936.16;5011495;28;20558;-78
2021/11/15 11:46:07;;;;;;;13.23;2.85;;;;;;;14.01;100.00;100940.38;5011083;28;20560;-78
2021/11/15 11:49:13;;;;;;;10.60;2.72;;;;;;;13.98;100.00;100937.75;5011424;28;20458;-78
2021/11/15 11:52:26;;;;;;;19.77;2.47;;;;;;;14.08;100.00;100930.88;5010105;28;20049;-78
2021/11/15 11:55:36;;;;;;;8.98;3.65;;;;;;;14.01;100.00;100922.81;5010711;28;20049;-78
2021/11/15 11:58:39;;;;;;;22.23;3.55;;;;;;;14.06;100.00;100924.97;5010172;28;20633;-78
2021/11/15 12:02:08;;;;;;;7.78;2.83;;;;;;;13.98;100.00;100918.16;5028943;28;20060;-78
2021/11/15 12:05:18;;;;;;;8.23;2.40;;;;;;;14.26;100.00;100911.19;5029056;28;20139;-78
2021/11/15 12:08:59;;;;;;;4.95;2.58;;;;;;;14.41;100.00;100906.44;5029285;28;20147;-79
2021/11/15 12:12:02;;;;;;;11.07;2.58;;;;;;;14.44;100.00;100908.31;5030936;28;20057;-79
2021/11/15 12:15:28;;;;;;;7.57;2.22;;;;;;;14.54;100.00;100904.19;5028832;28;20052;-78
2021/11/15 12:18:37;;;;;;;20.50;2.72;;;;;;;15.36;100.00;100901.47;5029891;28;20056;-78
2021/11/15 12:21:40;;;;;;;14.07;2.78;;;;;;;15.65;100.00;100895.09;5029551;28;20049;-78
2021/11/15 12:25:05;;;;;;;12.60;2.75;;;;;;;15.55;100.00;100904.91;5029519;28;20048;-79
2021/11/15 12:28:08;;;;;;;15.38;3.28;;;;;;;15.59;100.00;100908.28;5030373;28;20506;-78
2021/11/15 12:31:13;;;;;;;4.65;1.92;;;;;;;15.46;100.00;100900.16;5029362;28;20064;-79
2021/11/15 12:34:18;;;;;;;4.90;2.33;;;;;;;15.45;100.00;100890.19;5010724;28;20100;-78
2021/11/15 12:37:37;;;;;;;11.75;2.97;;;;;;;15.45;100.00;100892.19;5010571;28;20049;-78
2021/11/15 12:40:40;;;;;;;8.95;2.72;;;;;;;15.32;100.00;100888.88;5009040;28;20053;-78
2021/11/15 12:43:49;;;;;;;18.20;3.42;;;;;;;15.31;100.00;100890.16;5010265;28;20562;-78
2021/11/15 12:47:14;;;;;;;8.25;3.47;;;;;;;15.45;100.00;100875.34;5013493;28;20179;-78
2021/11/15 12:50:21;;;;;;;6.55;3.38;;;;;;;15.45;100.00;100881.75;5012858;28;20076;-79
2021/11/15 12:53:24;;;;;;;10.32;3.25;;;;;;;15.39;100.00;100878.06;5013864;28;20045;-78
2021/11/15 12:56:27;;;;;;;13.43;3.10;;;;;;;15.34;100.00;100872.31;5012748;28;20558;-78
2021/11/15 12:59:39;;;;;;;16.05;2.95;;;;;;;15.30;100.00;100875.34;5013323;28;20057;-78
2021/11/15 13:02:52;;;;;;;23.10;4.90;;;;;;;15.16;100.00;100865.63;5023560;28;20041;-78
2021/11/15 13:05:55;;;;;;;17.58;3.78;;;;;;;15.13;100.00;100866.63;5032675;28;20052;-78
2021/11/15 13:08:57;;;;;;;16.13;2.75;;;;;;;15.18;100.00;100874.34;5032818;28;20057;-79
2021/11/15 13:12:00;;;;;;;13.82;3.35;;;;;;;14.98;100.00;100865.84;5032924;28;20479;-79
2021/11/15 13:15:06;;;;;;;15.48;2.67;;;;;;;15.06;100.00;100871.81;5032047;28;20131;-79
2021/11/15 13:18:09;;;;;;;5.32;1.83;;;;;;;15.11;100.00;100883.16;5032219;28;20068;-78
2021/11/15 13:21:13;;;;;;;8.20;2.75;;;;;;;15.25;100.00;100870.38;5033561;28;20048;-79
2021/11/15 13:24:18;;;;;;;16.05;4.45;;;;;;;15.35;100.00;100871.06;5033250;28;20064;-79
2021/11/15 13:27:24;;;;;;;15.50;3.13;;;;;;;15.31;100.00;100870.50;5031970;28;20055;-78
2021/11/15 13:30:28;;;;;;;15.23;2.65;;;;;;;15.37;100.00;100872.16;5030164;28;20087;-79
2021/11/15 13:33:32;;;;;;;8.57;2.83;;;;;;;15.21;100.00;100872.63;5032665;28;20072;-77
2021/11/15 13:36:35;;;;;;;9.45;3.72;;;;;;;15.32;100.00;100872.03;5032073;28;20051;-78
2021/11/15 13:39:39;;;;;;;7.93;3.28;;;;;;;15.25;100.00;100866.81;5032208;28;20514;-78
2021/11/15 13:42:42;;;;;;;7.32;2.00;;;;;;;15.15;100.00;100861.31;5032437;28;20091;-78
2021/11/15 13:45:49;;;;;;;13.07;3.30;;;;;;;15.01;100.00;100859.25;5031872;28;20060;-80
2021/11/15 13:48:53;;;;;;;9.60;2.00;;;;;;;15.18;100.00;100857.50;5031579;28;20059;-79
2021/11/15 13:51:56;;;;;;;8.82;2.72;;;;;;;15.31;100.00;100853.66;5039394;28;20486;-79
2021/11/15 13:55:02;;;;;;;10.32;2.67;;;;;;;15.19;100.00;100845.03;5032639;28;20510;-78
2021/11/15 13:58:05;;;;;;;10.43;2.88;;;;;;;15.40;100.00;100845.16;5032588;28;20067;-79
2021/11/15 14:01:11;;;;;;;8.27;2.78;;;;;;;15.45;100.00;100841.66;5031567;28;20053;-78
2021/11/15 14:04:13;;;;;;;18.40;3.25;;;;;;;15.49;100.00;100836.63;5032161;28;20115;-79
2021/11/15 14:07:18;;;;;;;6.28;1.75;;;;;;;15.43;100.00;100835.75;5031819;28;20046;-79
2021/11/15 14:10:21;;;;;;;6.60;2.30;;;;;;;15.41;100.00;100829.84;5031732;28;20107;-78
2021/11/15 14:13:25;;;;;;;9.32;3.60;;;;;;;15.40;100.00;100828.31;5031910;28;20121;-79